createdAt,value
2023-06-18T00:01:51.885Z,7.80
2023-06-18T00:04:54.922Z,9.65
2023-06-18T00:07:57.975Z,8.33
2023-06-18T00:11:00.966Z,9.77
2023-06-18T00:14:03.959Z,8.75
2023-06-18T00:17:07.074Z,8.20
2023-06-18T00:20:10.759Z,7.57
2023-06-18T00:23:13.737Z,7.60
2023-06-18T00:26:16.784Z,7.70
2023-06-18T00:29:23.713Z,7.43
2023-06-18T00:32:26.790Z,7.38
2023-06-18T00:35:29.875Z,8.00
2023-06-18T00:38:34.236Z,8.77
2023-06-18T00:41:37.309Z,6.87
2023-06-18T00:44:43.406Z,8.48
2023-06-18T00:47:48.265Z,8.90
2023-06-18T00:50:54.128Z,8.02
2023-06-18T00:53:57.616Z,11.33
2023-06-18T00:57:01.014Z,16.07
2023-06-18T01:00:10.445Z,7.78
2023-06-18T01:03:17.362Z,10.25
2023-06-18T01:06:21.491Z,9.85
2023-06-18T01:09:25.874Z,8.57
2023-06-18T01:12:29.053Z,9.33
2023-06-18T01:15:32.037Z,9.25
2023-06-18T01:18:46.258Z,8.32
2023-06-18T01:21:56.561Z,9.20
2023-06-18T01:25:03.470Z,7.93
2023-06-18T01:28:09.714Z,7.63
2023-06-18T01:31:12.819Z,8.85
2023-06-18T01:34:16.136Z,9.68
2023-06-18T01:37:41.182Z,8.60
2023-06-18T01:41:22.688Z,9.77
2023-06-18T01:44:25.658Z,10.60
2023-06-18T01:47:28.760Z,7.68
2023-06-18T01:50:32.688Z,9.75
2023-06-18T01:53:36.280Z,8.45
2023-06-18T01:56:39.575Z,9.23
2023-06-18T01:59:46.404Z,11.17
2023-06-18T02:02:51.105Z,9.35
2023-06-18T02:05:54.172Z,8.82
2023-06-18T02:08:57.187Z,8.68
2023-06-18T02:12:00.154Z,9.07
2023-06-18T02:15:05.090Z,9.67
2023-06-18T02:18:08.398Z,8.27
2023-06-18T02:21:11.719Z,8.30
2023-06-18T02:24:16.811Z,7.57
2023-06-18T02:27:19.846Z,7.90
2023-06-18T02:30:23.010Z,8.53
2023-06-18T02:33:26.587Z,8.20
2023-06-18T02:36:29.998Z,9.07
2023-06-18T02:39:32.985Z,9.20
2023-06-18T02:42:36.463Z,8.43
2023-06-18T02:45:39.559Z,7.47
2023-06-18T02:48:42.596Z,10.45
2023-06-18T02:51:45.626Z,10.55
2023-06-18T02:54:48.730Z,8.30
2023-06-18T02:57:51.843Z,9.80
2023-06-18T03:00:58.019Z,9.07
2023-06-18T03:04:01.588Z,8.55
2023-06-18T03:07:07.191Z,8.63
2023-06-18T03:10:10.469Z,8.98
2023-06-18T03:13:14.222Z,9.57
2023-06-18T03:16:27.912Z,10.13
2023-06-18T03:19:32.233Z,9.65
2023-06-18T03:22:35.211Z,11.13
2023-06-18T03:25:38.567Z,9.15
2023-06-18T03:28:43.911Z,9.20
2023-06-18T03:31:47.574Z,10.10
2023-06-18T03:34:51.983Z,9.27
2023-06-18T03:37:58.496Z,9.88
2023-06-18T03:41:01.732Z,9.65
2023-06-18T03:44:05.006Z,10.90
2023-06-18T03:47:08.805Z,9.70
2023-06-18T03:50:12.298Z,8.95
2023-06-18T03:53:15.639Z,9.73
2023-06-18T03:56:22.694Z,11.52
2023-06-18T03:59:26.060Z,8.97
2023-06-18T04:02:29.872Z,11.10
2023-06-18T04:05:33.163Z,9.73
2023-06-18T04:08:36.286Z,10.07
2023-06-18T04:11:39.617Z,9.40
2023-06-18T04:14:42.806Z,8.80
2023-06-18T04:17:46.059Z,11.00
2023-06-18T04:20:50.819Z,9.20
2023-06-18T04:23:55.769Z,10.60
2023-06-18T04:27:00.493Z,10.10
2023-06-18T04:30:04.873Z,9.67
2023-06-18T04:33:09.370Z,10.50
2023-06-18T04:36:14.388Z,9.60
2023-06-18T04:39:19.011Z,10.48
2023-06-18T04:42:22.079Z,9.80
2023-06-18T04:45:25.195Z,10.83
2023-06-18T04:48:28.731Z,10.03
2023-06-18T04:51:31.929Z,9.57
2023-06-18T04:54:35.050Z,9.13
2023-06-18T04:57:38.251Z,9.65
2023-06-18T05:00:41.264Z,7.97
2023-06-18T05:03:45.393Z,9.37
2023-06-18T05:06:48.870Z,8.77
2023-06-18T05:09:52.332Z,9.35
2023-06-18T05:12:55.582Z,10.68
2023-06-18T05:15:58.705Z,9.60
2023-06-18T05:19:01.813Z,9.30
2023-06-18T05:22:05.199Z,8.40
2023-06-18T05:25:09.896Z,8.27
2023-06-18T05:28:12.941Z,8.32
2023-06-18T05:31:19.931Z,8.40
2023-06-18T05:34:23.688Z,8.90
2023-06-18T05:37:26.930Z,9.60
2023-06-18T05:40:29.945Z,9.52
2023-06-18T05:43:37.036Z,8.82
2023-06-18T05:46:40.210Z,10.47
2023-06-18T05:49:43.702Z,8.03
2023-06-18T05:52:46.764Z,8.18
2023-06-18T05:55:49.745Z,8.27
2023-06-18T05:58:54.616Z,7.55
2023-06-18T06:01:58.432Z,8.13
2023-06-18T06:05:01.490Z,9.03
2023-06-18T06:08:04.936Z,7.82
2023-06-18T06:11:11.013Z,9.15
2023-06-18T06:14:14.480Z,7.50
2023-06-18T06:17:17.566Z,7.83
2023-06-18T06:20:20.784Z,8.33
2023-06-18T06:23:24.545Z,8.45
2023-06-18T06:26:27.632Z,7.25
2023-06-18T06:29:30.715Z,8.10
2023-06-18T06:32:34.676Z,9.40
2023-06-18T06:35:38.551Z,7.63
2023-06-18T06:38:43.494Z,7.97
2023-06-18T06:41:46.952Z,7.70
2023-06-18T06:44:51.217Z,7.90
2023-06-18T06:48:07.377Z,8.00
2023-06-18T06:51:28.907Z,7.87
2023-06-18T06:54:39.980Z,6.57
2023-06-18T06:57:43.180Z,7.60
2023-06-18T07:00:46.574Z,6.65
2023-06-18T07:03:49.706Z,8.23
2023-06-18T07:06:52.708Z,7.67
2023-06-18T07:09:56.422Z,7.85
2023-06-18T07:12:59.605Z,8.30
2023-06-18T07:16:02.768Z,6.90
2023-06-18T07:19:06.134Z,9.20
2023-06-18T07:22:09.134Z,8.17
2023-06-18T07:25:12.162Z,6.90
2023-06-18T07:28:15.157Z,7.88
2023-06-18T07:31:18.124Z,7.63
2023-06-18T07:34:21.097Z,7.37
2023-06-18T07:37:24.435Z,7.10
2023-06-18T07:40:29.441Z,7.57
2023-06-18T07:43:32.470Z,7.22
2023-06-18T07:46:36.212Z,7.22
2023-06-18T07:49:39.214Z,6.70
2023-06-18T07:52:42.250Z,7.70
2023-06-18T07:55:45.230Z,6.32
2023-06-18T07:58:48.202Z,8.48
2023-06-18T08:01:51.485Z,6.70
2023-06-18T08:04:54.573Z,6.27
2023-06-18T08:07:57.733Z,6.27
2023-06-18T08:11:00.858Z,6.10
2023-06-18T08:14:04.778Z,6.15
2023-06-18T08:17:07.849Z,5.80
2023-06-18T08:20:11.320Z,5.60
2023-06-18T08:23:16.368Z,5.87
2023-06-18T08:26:20.524Z,5.72
2023-06-18T08:29:23.586Z,6.03
2023-06-18T08:32:26.630Z,5.60
2023-06-18T08:35:29.671Z,6.47
2023-06-18T08:38:32.732Z,7.33
2023-06-18T08:41:35.762Z,7.95
2023-06-18T08:44:38.798Z,5.93
2023-06-18T08:47:41.910Z,7.18
2023-06-18T08:50:45.196Z,5.90
2023-06-18T08:53:52.508Z,5.77
2023-06-18T08:57:07.212Z,6.50
2023-06-18T09:00:10.478Z,5.90
2023-06-18T09:03:13.662Z,6.32
2023-06-18T09:06:16.866Z,7.13
2023-06-18T09:09:21.176Z,7.10
2023-06-18T09:12:24.504Z,6.07
2023-06-18T09:15:27.537Z,6.32
2023-06-18T09:18:30.585Z,6.40
2023-06-18T09:21:39.562Z,6.03
2023-06-18T09:24:42.890Z,6.67
2023-06-18T09:27:46.023Z,6.10
2023-06-18T09:31:00.756Z,7.50
2023-06-18T09:34:17.200Z,8.00
2023-06-18T09:37:20.914Z,8.40
2023-06-18T09:40:24.255Z,6.40
2023-06-18T09:43:35.985Z,6.80
2023-06-18T09:46:39.066Z,7.30
2023-06-18T09:49:43.680Z,7.47
2023-06-18T09:52:50.310Z,5.93
2023-06-18T09:55:53.603Z,7.83
2023-06-18T09:58:57.074Z,10.65
2023-06-18T10:02:00.195Z,7.38
2023-06-18T10:05:03.349Z,6.90
2023-06-18T10:08:07.837Z,7.03
2023-06-18T10:11:11.671Z,6.80
2023-06-18T10:14:14.709Z,6.90
2023-06-18T10:17:32.977Z,6.30
2023-06-18T10:20:36.039Z,8.63
2023-06-18T10:23:39.093Z,6.73
2023-06-18T10:26:42.250Z,7.90
2023-06-18T10:29:45.259Z,7.45
2023-06-18T10:32:48.511Z,7.82
2023-06-18T10:35:51.566Z,7.68
2023-06-18T10:38:54.548Z,7.10
2023-06-18T10:42:00.049Z,7.40
2023-06-18T10:45:13.728Z,7.80
2023-06-18T10:48:19.461Z,7.25
2023-06-18T10:51:22.585Z,7.32
2023-06-18T10:54:30.720Z,7.20
2023-06-18T10:57:44.499Z,7.37
2023-06-18T11:00:47.837Z,8.93
2023-06-18T11:04:00.149Z,7.65
2023-06-18T11:07:25.264Z,8.02
2023-06-18T11:10:37.791Z,7.50
2023-06-18T11:13:54.797Z,7.57
2023-06-18T11:17:11.035Z,7.60
2023-06-18T11:20:14.156Z,7.78
2023-06-18T11:23:17.454Z,8.68
2023-06-18T11:26:21.312Z,7.50
2023-06-18T11:29:24.352Z,8.00
2023-06-18T11:32:27.541Z,7.93
2023-06-18T11:35:34.038Z,7.53
2023-06-18T11:38:37.175Z,8.77
2023-06-18T11:41:40.672Z,9.00
2023-06-18T11:44:50.794Z,7.60
2023-06-18T11:47:53.932Z,7.65
2023-06-18T11:50:57.505Z,7.82
2023-06-18T11:54:00.654Z,7.18
2023-06-18T11:57:03.684Z,7.53
2023-06-18T12:00:10.108Z,8.48
2023-06-18T12:03:16.229Z,7.80
2023-06-18T12:06:19.249Z,7.95
2023-06-18T12:09:22.736Z,7.17
2023-06-18T12:12:58.046Z,8.00
2023-06-18T12:16:15.070Z,8.60
2023-06-18T12:19:18.077Z,8.60
2023-06-18T12:22:21.078Z,7.90
2023-06-18T12:25:25.024Z,8.40
2023-06-18T12:28:30.227Z,9.05
2023-06-18T12:31:34.657Z,7.20
2023-06-18T12:34:37.701Z,8.02
2023-06-18T12:37:44.247Z,8.38
2023-06-18T12:41:05.821Z,9.27
2023-06-18T12:44:10.163Z,8.75
2023-06-18T12:47:13.711Z,8.18
2023-06-18T12:50:25.904Z,8.63
2023-06-18T12:53:29.286Z,7.53
2023-06-18T12:56:32.385Z,7.30
2023-06-18T12:59:35.373Z,7.93
2023-06-18T13:02:38.682Z,7.65
2023-06-18T13:05:43.376Z,8.10
2023-06-18T13:08:47.687Z,8.38
2023-06-18T13:11:50.840Z,7.47
2023-06-18T13:14:55.097Z,8.32
2023-06-18T13:17:58.879Z,8.02
2023-06-18T13:21:03.952Z,8.57
2023-06-18T13:24:07.365Z,7.43
2023-06-18T13:27:11.174Z,8.63
2023-06-18T13:30:14.610Z,9.40
2023-06-18T13:33:18.326Z,7.78
2023-06-18T13:36:21.736Z,7.00
2023-06-18T13:39:24.786Z,8.15
2023-06-18T13:42:27.840Z,7.77
2023-06-18T13:45:30.892Z,8.05
2023-06-18T13:48:34.039Z,7.97
2023-06-18T13:51:37.077Z,8.13
2023-06-18T13:54:40.039Z,8.98
2023-06-18T13:57:43.060Z,7.60
2023-06-18T14:00:46.507Z,7.55
2023-06-18T14:03:49.768Z,7.88
2023-06-18T14:06:54.116Z,7.18
2023-06-18T14:09:57.149Z,7.57
2023-06-18T14:13:00.199Z,7.93
2023-06-18T14:16:06.828Z,9.02
2023-06-18T14:19:10.112Z,8.82
2023-06-18T14:22:13.104Z,7.60
2023-06-18T14:25:16.451Z,8.15
2023-06-18T14:28:19.524Z,7.57
2023-06-18T14:31:22.546Z,8.25
2023-06-18T14:34:25.575Z,8.07
2023-06-18T14:37:28.552Z,6.45
2023-06-18T14:40:31.577Z,9.57
2023-06-18T14:43:34.539Z,7.40
2023-06-18T14:46:37.590Z,8.40
2023-06-18T14:49:40.573Z,7.15
2023-06-18T14:52:43.582Z,8.43
2023-06-18T14:55:47.406Z,6.93
2023-06-18T14:58:50.503Z,8.17
2023-06-18T15:01:53.668Z,8.32
2023-06-18T15:04:58.579Z,7.75
2023-06-18T15:08:02.156Z,8.27
2023-06-18T15:11:05.225Z,8.52
2023-06-18T15:14:08.434Z,7.23
2023-06-18T15:17:11.623Z,7.32
2023-06-18T15:20:15.393Z,7.82
2023-06-18T15:23:18.377Z,8.32
2023-06-18T15:26:21.573Z,6.95
2023-06-18T15:29:24.571Z,8.57
2023-06-18T15:32:27.667Z,7.28
2023-06-18T15:35:30.909Z,7.32
2023-06-18T15:38:33.907Z,7.75
2023-06-18T15:41:37.423Z,8.50
2023-06-18T15:44:40.795Z,8.77
2023-06-18T15:47:43.919Z,6.78
2023-06-18T15:50:48.662Z,8.10
2023-06-18T15:53:51.760Z,6.85
2023-06-18T15:56:54.750Z,6.97
2023-06-18T15:59:57.750Z,7.93
2023-06-18T16:03:00.830Z,8.93
2023-06-18T16:06:03.908Z,6.97
2023-06-18T16:09:07.433Z,9.77
2023-06-18T16:12:11.093Z,8.48
2023-06-18T16:15:14.140Z,8.10
2023-06-18T16:18:18.997Z,7.13
2023-06-18T16:21:22.138Z,7.20
2023-06-18T16:24:25.260Z,9.27
2023-06-18T16:27:28.341Z,8.85
2023-06-18T16:30:31.593Z,8.17
2023-06-18T16:33:34.553Z,7.10
2023-06-18T16:36:37.986Z,7.18
2023-06-18T16:39:41.097Z,7.82
2023-06-18T16:42:44.139Z,7.30
2023-06-18T16:45:47.891Z,6.90
2023-06-18T16:48:50.871Z,7.75
2023-06-18T16:51:53.849Z,7.60
2023-06-18T16:54:56.928Z,6.90
2023-06-18T16:57:59.933Z,7.25
2023-06-18T17:01:03.356Z,7.10
2023-06-18T17:04:07.550Z,9.98
2023-06-18T17:07:10.792Z,7.60
2023-06-18T17:10:13.752Z,7.07
2023-06-18T17:13:16.930Z,7.10
2023-06-18T17:16:20.262Z,7.37
2023-06-18T17:19:23.237Z,8.02
2023-06-18T17:22:26.474Z,9.75
2023-06-18T17:25:29.507Z,7.53
2023-06-18T17:28:32.619Z,8.55
2023-06-18T17:31:35.770Z,8.10
2023-06-18T17:34:38.857Z,8.20
2023-06-18T17:37:42.073Z,8.50
2023-06-18T17:40:45.062Z,8.68
2023-06-18T17:43:48.055Z,11.90
2023-06-18T17:46:51.088Z,7.23
2023-06-18T17:49:54.081Z,8.23
2023-06-18T17:52:57.080Z,7.72
2023-06-18T17:56:00.147Z,8.18
2023-06-18T17:59:03.309Z,7.57
2023-06-18T18:02:07.816Z,7.70
2023-06-18T18:05:10.950Z,7.22
2023-06-18T18:08:14.362Z,7.55
2023-06-18T18:11:18.692Z,8.38
2023-06-18T18:14:21.798Z,7.50
2023-06-18T18:17:25.017Z,8.07
2023-06-18T18:20:28.062Z,7.95
2023-06-18T18:23:31.137Z,8.52
2023-06-18T18:26:46.978Z,8.93
2023-06-18T18:29:51.120Z,7.93
2023-06-18T18:32:54.128Z,8.57
2023-06-18T18:35:57.164Z,9.32
2023-06-18T18:39:00.150Z,8.63
2023-06-18T18:42:03.370Z,8.02
2023-06-18T18:45:06.834Z,9.15
2023-06-18T18:48:09.864Z,8.40
2023-06-18T18:51:14.167Z,9.23
2023-06-18T18:54:17.588Z,8.85
2023-06-18T18:57:21.281Z,9.50
2023-06-18T19:00:24.464Z,8.50
2023-06-18T19:03:28.067Z,9.20
2023-06-18T19:06:31.246Z,8.43
2023-06-18T19:09:34.566Z,10.80
2023-06-18T19:12:38.028Z,10.57
2023-06-18T19:15:41.074Z,9.43
2023-06-18T19:18:44.201Z,8.77
2023-06-18T19:21:47.188Z,10.68
2023-06-18T19:24:50.252Z,10.50
2023-06-18T19:27:53.245Z,11.38
2023-06-18T19:30:56.445Z,9.55
2023-06-18T19:34:00.111Z,9.33
2023-06-18T19:37:05.976Z,9.88
2023-06-18T19:40:09.428Z,11.02
2023-06-18T19:43:12.981Z,9.50
2023-06-18T19:46:16.141Z,11.60
2023-06-18T19:49:19.279Z,11.63
2023-06-18T19:52:22.262Z,11.25
2023-06-18T19:55:25.972Z,15.15
2023-06-18T19:58:28.997Z,12.55
2023-06-18T20:01:31.970Z,10.35
2023-06-18T20:04:34.987Z,11.97
2023-06-18T20:07:38.192Z,13.70
2023-06-18T20:10:41.189Z,14.57
2023-06-18T20:13:44.207Z,13.25
2023-06-18T20:16:47.735Z,11.57
2023-06-18T20:19:50.962Z,12.17
2023-06-18T20:22:53.940Z,12.57
2023-06-18T20:25:58.396Z,11.23
2023-06-18T20:29:02.283Z,12.43
2023-06-18T20:32:05.908Z,12.73
2023-06-18T20:35:09.200Z,10.90
2023-06-18T20:38:12.252Z,10.75
2023-06-18T20:41:17.644Z,10.50
2023-06-18T20:44:20.642Z,9.82
2023-06-18T20:47:23.809Z,10.40
2023-06-18T20:50:27.303Z,13.03
2023-06-18T20:53:32.581Z,10.30
2023-06-18T20:56:35.610Z,11.93
2023-06-18T20:59:38.792Z,16.80
2023-06-18T21:02:42.792Z,14.63
2023-06-18T21:05:45.937Z,13.13
2023-06-18T21:08:49.055Z,13.05
2023-06-18T21:11:52.103Z,12.70
2023-06-18T21:14:55.100Z,13.40
2023-06-18T21:17:58.184Z,13.68
2023-06-18T21:21:01.284Z,13.10
2023-06-18T21:24:04.484Z,14.45
2023-06-18T21:27:07.646Z,12.30
2023-06-18T21:30:10.968Z,10.35
2023-06-18T21:33:14.027Z,13.80
2023-06-18T21:36:17.017Z,12.33
2023-06-18T21:39:19.981Z,12.18
2023-06-18T21:42:23.118Z,12.35
2023-06-18T21:45:26.941Z,12.63
2023-06-18T21:48:30.098Z,10.70
2023-06-18T21:51:33.043Z,11.73
2023-06-18T21:54:36.058Z,12.93
2023-06-18T21:57:39.346Z,12.88
2023-06-18T22:00:42.336Z,11.48
2023-06-18T22:03:45.380Z,13.73
2023-06-18T22:06:48.351Z,11.43
2023-06-18T22:09:51.395Z,14.75
2023-06-18T22:12:54.441Z,12.57
2023-06-18T22:15:57.464Z,15.38
2023-06-18T22:19:12.926Z,10.32
2023-06-18T22:22:15.916Z,11.93
2023-06-18T22:25:18.896Z,14.77
2023-06-18T22:28:21.924Z,13.40
2023-06-18T22:31:25.064Z,13.10
2023-06-18T22:34:40.441Z,12.50
2023-06-18T22:37:44.511Z,13.53
2023-06-18T22:40:48.008Z,10.82
2023-06-18T22:43:51.125Z,12.50
2023-06-18T22:46:54.168Z,11.43
2023-06-18T22:49:57.138Z,14.50
2023-06-18T22:53:00.221Z,12.73
2023-06-18T22:56:03.222Z,15.52
2023-06-18T22:59:06.282Z,12.65
2023-06-18T23:02:09.300Z,13.00
2023-06-18T23:05:12.321Z,13.52
2023-06-18T23:08:15.409Z,12.77
2023-06-18T23:11:18.414Z,12.85
2023-06-18T23:14:21.410Z,17.02
2023-06-18T23:17:24.693Z,14.10
2023-06-18T23:20:30.097Z,15.02
2023-06-18T23:23:33.048Z,10.97
2023-06-18T23:26:36.100Z,15.25
2023-06-18T23:29:40.462Z,13.75
2023-06-18T23:32:43.544Z,12.20
2023-06-18T23:35:47.492Z,12.70
2023-06-18T23:38:50.594Z,14.10
2023-06-18T23:41:53.635Z,13.50
2023-06-18T23:44:56.648Z,12.55
2023-06-18T23:47:59.807Z,12.82
2023-06-18T23:51:03.092Z,13.98
2023-06-18T23:54:06.138Z,14.07
2023-06-18T23:57:09.109Z,12.60
